Brecon, United Kingdom
Current Conditions -  °F | °C
As of 7:50 AM on Sunday 26 Oct 2014 (Local Time) from EGFF Reporting Station
Overcast Overcast  
Wind Chill: 13°   Ceiling: 2800
Heat Index: 13°   Visibility: 6mi
Dew Point:   Wind: 13mph
Humidity: 77%   Direction: 210°SSW
Pressure: 30.09"   Gusts: NA
Location:  51.95°N, 3.39°W
Report Text: EGFF 260650Z AUTO 21011KT 9999 OVC028 13/09 Q1019
Loading
Personal Weather Stations






























Interactive Weather Map
Tropical Storm Tracking
New forecast layout! Learn more

10-Day Weather Forecast

Advertisements
Track Severe Weather on mobile